sensor_id;sensor_type;location;lat;lon;timestamp;P1;durP1;ratioP1;P2;durP2;ratioP2
54265;SDS011;40836;39.770;2.714;2022-09-09T00:04:40;10.85;;;3.90;;
54265;SDS011;40836;39.770;2.714;2022-09-09T00:07:20;8.15;;;4.38;;
54265;SDS011;40836;39.770;2.714;2022-09-09T00:15:15;6.47;;;3.72;;
54265;SDS011;40836;39.770;2.714;2022-09-09T00:17:51;8.52;;;3.70;;
54265;SDS011;40836;39.770;2.714;2022-09-09T00:25:58;7.00;;;4.00;;
54265;SDS011;40836;39.770;2.714;2022-09-09T00:28:25;6.53;;;3.80;;
54265;SDS011;40836;39.770;2.714;2022-09-09T00:30:54;9.40;;;3.95;;
54265;SDS011;40836;39.770;2.714;2022-09-09T00:33:23;6.82;;;3.90;;
54265;SDS011;40836;39.770;2.714;2022-09-09T00:35:58;9.75;;;3.72;;
54265;SDS011;40836;39.770;2.714;2022-09-09T00:43:43;7.97;;;3.60;;
54265;SDS011;40836;39.770;2.714;2022-09-09T00:52:12;6.97;;;3.75;;
54265;SDS011;40836;39.770;2.714;2022-09-09T00:54:48;7.25;;;3.60;;
54265;SDS011;40836;39.770;2.714;2022-09-09T00:57:30;8.68;;;4.07;;
54265;SDS011;40836;39.770;2.714;2022-09-09T01:03:00;9.45;;;4.10;;
54265;SDS011;40836;39.770;2.714;2022-09-09T01:11:24;6.45;;;4.00;;
54265;SDS011;40836;39.770;2.714;2022-09-09T01:14:19;8.20;;;3.60;;
54265;SDS011;40836;39.770;2.714;2022-09-09T01:16:55;7.82;;;3.72;;
54265;SDS011;40836;39.770;2.714;2022-09-09T01:22:21;7.13;;;3.80;;
54265;SDS011;40836;39.770;2.714;2022-09-09T01:27:31;7.45;;;4.03;;
54265;SDS011;40836;39.770;2.714;2022-09-09T01:29:57;8.02;;;4.28;;
54265;SDS011;40836;39.770;2.714;2022-09-09T01:32:37;7.45;;;3.95;;
54265;SDS011;40836;39.770;2.714;2022-09-09T01:35:14;6.50;;;3.60;;
54265;SDS011;40836;39.770;2.714;2022-09-09T01:37:59;7.72;;;4.00;;
54265;SDS011;40836;39.770;2.714;2022-09-09T01:40:25;6.00;;;3.60;;
54265;SDS011;40836;39.770;2.714;2022-09-09T01:42:51;7.05;;;3.67;;
54265;SDS011;40836;39.770;2.714;2022-09-09T01:45:18;6.05;;;3.67;;
54265;SDS011;40836;39.770;2.714;2022-09-09T01:47:44;6.45;;;3.28;;
54265;SDS011;40836;39.770;2.714;2022-09-09T01:50:11;8.48;;;3.80;;
54265;SDS011;40836;39.770;2.714;2022-09-09T01:52:39;8.38;;;3.35;;
54265;SDS011;40836;39.770;2.714;2022-09-09T01:55:07;6.75;;;3.30;;
54265;SDS011;40836;39.770;2.714;2022-09-09T01:57:37;6.50;;;3.63;;
54265;SDS011;40836;39.770;2.714;2022-09-09T02:00:11;6.60;;;3.40;;
54265;SDS011;40836;39.770;2.714;2022-09-09T02:02:43;5.20;;;3.50;;
54265;SDS011;40836;39.770;2.714;2022-09-09T02:13:54;6.78;;;3.45;;
54265;SDS011;40836;39.770;2.714;2022-09-09T02:16:29;8.40;;;3.55;;
54265;SDS011;40836;39.770;2.714;2022-09-09T02:19:27;9.02;;;3.78;;
54265;SDS011;40836;39.770;2.714;2022-09-09T02:21:57;8.00;;;3.60;;
54265;SDS011;40836;39.770;2.714;2022-09-09T02:24:24;5.28;;;3.33;;
54265;SDS011;40836;39.770;2.714;2022-09-09T02:26:52;5.93;;;3.33;;
54265;SDS011;40836;39.770;2.714;2022-09-09T02:29:26;5.90;;;3.40;;
54265;SDS011;40836;39.770;2.714;2022-09-09T02:31:56;6.20;;;3.30;;
54265;SDS011;40836;39.770;2.714;2022-09-09T02:34:28;4.95;;;3.30;;
54265;SDS011;40836;39.770;2.714;2022-09-09T02:36:56;8.95;;;3.47;;
54265;SDS011;40836;39.770;2.714;2022-09-09T02:39:22;7.35;;;3.35;;
54265;SDS011;40836;39.770;2.714;2022-09-09T02:41:47;7.35;;;3.35;;
54265;SDS011;40836;39.770;2.714;2022-09-09T02:44:14;5.80;;;3.40;;
54265;SDS011;40836;39.770;2.714;2022-09-09T02:49:10;7.68;;;3.90;;
54265;SDS011;40836;39.770;2.714;2022-09-09T02:54:35;7.65;;;3.88;;
54265;SDS011;40836;39.770;2.714;2022-09-09T02:57:13;7.22;;;3.63;;
54265;SDS011;40836;39.770;2.714;2022-09-09T02:59:43;8.45;;;3.67;;
54265;SDS011;40836;39.770;2.714;2022-09-09T03:02:10;6.00;;;3.50;;
54265;SDS011;40836;39.770;2.714;2022-09-09T03:04:36;7.95;;;3.33;;
54265;SDS011;40836;39.770;2.714;2022-09-09T03:07:04;6.65;;;3.30;;
54265;SDS011;40836;39.770;2.714;2022-09-09T03:09:30;6.60;;;3.50;;
54265;SDS011;40836;39.770;2.714;2022-09-09T03:11:57;5.82;;;3.33;;
54265;SDS011;40836;39.770;2.714;2022-09-09T03:14:23;7.75;;;3.08;;
54265;SDS011;40836;39.770;2.714;2022-09-09T03:16:52;5.00;;;3.30;;
54265;SDS011;40836;39.770;2.714;2022-09-09T03:19:18;5.70;;;3.38;;
54265;SDS011;40836;39.770;2.714;2022-09-09T03:21:45;5.85;;;3.38;;
54265;SDS011;40836;39.770;2.714;2022-09-09T03:24:11;6.20;;;3.25;;
54265;SDS011;40836;39.770;2.714;2022-09-09T03:26:37;8.02;;;3.80;;
54265;SDS011;40836;39.770;2.714;2022-09-09T03:29:03;5.28;;;3.50;;
54265;SDS011;40836;39.770;2.714;2022-09-09T03:31:31;5.13;;;3.40;;
54265;SDS011;40836;39.770;2.714;2022-09-09T03:33:57;6.30;;;3.55;;
54265;SDS011;40836;39.770;2.714;2022-09-09T03:36:24;6.93;;;3.47;;
54265;SDS011;40836;39.770;2.714;2022-09-09T03:38:51;8.20;;;3.63;;
54265;SDS011;40836;39.770;2.714;2022-09-09T03:41:16;7.07;;;3.58;;
54265;SDS011;40836;39.770;2.714;2022-09-09T03:43:42;5.93;;;3.22;;
54265;SDS011;40836;39.770;2.714;2022-09-09T03:46:08;5.78;;;3.47;;
54265;SDS011;40836;39.770;2.714;2022-09-09T03:48:33;6.13;;;3.42;;
54265;SDS011;40836;39.770;2.714;2022-09-09T03:50:59;5.72;;;3.28;;
54265;SDS011;40836;39.770;2.714;2022-09-09T03:53:26;5.22;;;3.30;;
54265;SDS011;40836;39.770;2.714;2022-09-09T03:55:52;5.05;;;3.28;;
54265;SDS011;40836;39.770;2.714;2022-09-09T03:58:20;6.57;;;3.47;;
54265;SDS011;40836;39.770;2.714;2022-09-09T04:03:28;6.80;;;3.28;;
54265;SDS011;40836;39.770;2.714;2022-09-09T04:05:55;4.38;;;2.97;;
54265;SDS011;40836;39.770;2.714;2022-09-09T04:08:22;4.72;;;3.13;;
54265;SDS011;40836;39.770;2.714;2022-09-09T04:10:51;4.47;;;2.92;;
54265;SDS011;40836;39.770;2.714;2022-09-09T04:13:17;6.30;;;3.40;;
54265;SDS011;40836;39.770;2.714;2022-09-09T04:15:49;7.68;;;3.22;;
54265;SDS011;40836;39.770;2.714;2022-09-09T04:18:19;5.13;;;3.33;;
54265;SDS011;40836;39.770;2.714;2022-09-09T04:20:46;4.13;;;3.33;;
54265;SDS011;40836;39.770;2.714;2022-09-09T04:23:13;6.35;;;3.40;;
54265;SDS011;40836;39.770;2.714;2022-09-09T04:25:43;5.50;;;3.55;;
54265;SDS011;40836;39.770;2.714;2022-09-09T04:28:09;10.00;;;3.50;;
54265;SDS011;40836;39.770;2.714;2022-09-09T04:30:35;5.18;;;3.50;;
54265;SDS011;40836;39.770;2.714;2022-09-09T04:33:00;5.88;;;3.50;;
54265;SDS011;40836;39.770;2.714;2022-09-09T04:35:26;6.90;;;3.80;;
54265;SDS011;40836;39.770;2.714;2022-09-09T04:37:52;5.20;;;3.58;;
54265;SDS011;40836;39.770;2.714;2022-09-09T04:40:17;8.85;;;3.72;;
54265;SDS011;40836;39.770;2.714;2022-09-09T04:42:43;7.60;;;3.78;;
54265;SDS011;40836;39.770;2.714;2022-09-09T04:45:09;5.43;;;3.70;;
54265;SDS011;40836;39.770;2.714;2022-09-09T04:47:36;5.80;;;3.67;;
54265;SDS011;40836;39.770;2.714;2022-09-09T04:50:02;8.70;;;3.95;;
54265;SDS011;40836;39.770;2.714;2022-09-09T04:52:27;7.32;;;3.67;;
54265;SDS011;40836;39.770;2.714;2022-09-09T04:54:53;7.18;;;4.30;;
54265;SDS011;40836;39.770;2.714;2022-09-09T04:57:19;7.13;;;3.85;;
54265;SDS011;40836;39.770;2.714;2022-09-09T04:59:45;5.53;;;3.75;;
54265;SDS011;40836;39.770;2.714;2022-09-09T05:02:11;12.98;;;3.85;;
54265;SDS011;40836;39.770;2.714;2022-09-09T05:04:36;5.05;;;3.58;;
54265;SDS011;40836;39.770;2.714;2022-09-09T05:07:02;6.95;;;3.78;;
54265;SDS011;40836;39.770;2.714;2022-09-09T05:09:27;8.18;;;4.20;;
54265;SDS011;40836;39.770;2.714;2022-09-09T05:11:54;6.30;;;3.80;;
54265;SDS011;40836;39.770;2.714;2022-09-09T05:14:19;7.40;;;3.75;;
54265;SDS011;40836;39.770;2.714;2022-09-09T05:16:45;8.82;;;3.70;;
54265;SDS011;40836;39.770;2.714;2022-09-09T05:19:12;5.70;;;3.53;;
54265;SDS011;40836;39.770;2.714;2022-09-09T05:21:37;6.95;;;3.67;;
54265;SDS011;40836;39.770;2.714;2022-09-09T05:24:03;7.57;;;3.55;;
54265;SDS011;40836;39.770;2.714;2022-09-09T05:26:28;9.02;;;3.97;;
54265;SDS011;40836;39.770;2.714;2022-09-09T05:28:57;10.65;;;3.63;;
54265;SDS011;40836;39.770;2.714;2022-09-09T05:31:24;6.50;;;3.28;;
54265;SDS011;40836;39.770;2.714;2022-09-09T05:33:53;9.77;;;3.60;;
54265;SDS011;40836;39.770;2.714;2022-09-09T05:36:20;10.65;;;3.67;;
54265;SDS011;40836;39.770;2.714;2022-09-09T05:38:46;10.48;;;3.80;;
54265;SDS011;40836;39.770;2.714;2022-09-09T05:41:13;13.65;;;4.05;;
54265;SDS011;40836;39.770;2.714;2022-09-09T05:43:42;9.25;;;3.78;;
54265;SDS011;40836;39.770;2.714;2022-09-09T05:46:16;9.98;;;4.10;;
54265;SDS011;40836;39.770;2.714;2022-09-09T05:48:43;8.77;;;3.88;;
54265;SDS011;40836;39.770;2.714;2022-09-09T05:51:16;9.93;;;4.40;;
54265;SDS011;40836;39.770;2.714;2022-09-09T05:53:43;8.65;;;4.50;;
54265;SDS011;40836;39.770;2.714;2022-09-09T05:56:11;10.18;;;4.30;;
54265;SDS011;40836;39.770;2.714;2022-09-09T05:58:41;8.32;;;4.15;;
54265;SDS011;40836;39.770;2.714;2022-09-09T06:04:06;8.70;;;3.97;;
54265;SDS011;40836;39.770;2.714;2022-09-09T06:06:33;9.10;;;4.20;;
54265;SDS011;40836;39.770;2.714;2022-09-09T06:09:01;8.63;;;4.18;;
54265;SDS011;40836;39.770;2.714;2022-09-09T06:11:29;8.48;;;4.03;;
54265;SDS011;40836;39.770;2.714;2022-09-09T06:13:58;11.20;;;4.55;;
54265;SDS011;40836;39.770;2.714;2022-09-09T06:16:25;8.95;;;4.68;;
54265;SDS011;40836;39.770;2.714;2022-09-09T06:18:53;9.48;;;4.38;;
54265;SDS011;40836;39.770;2.714;2022-09-09T06:21:23;12.50;;;5.00;;
54265;SDS011;40836;39.770;2.714;2022-09-09T06:23:50;10.98;;;4.60;;
54265;SDS011;40836;39.770;2.714;2022-09-09T06:26:20;12.30;;;4.40;;
54265;SDS011;40836;39.770;2.714;2022-09-09T06:28:48;10.07;;;4.55;;
54265;SDS011;40836;39.770;2.714;2022-09-09T06:31:16;12.95;;;4.10;;
54265;SDS011;40836;39.770;2.714;2022-09-09T06:33:46;10.57;;;4.43;;
54265;SDS011;40836;39.770;2.714;2022-09-09T06:36:12;13.07;;;4.32;;
54265;SDS011;40836;39.770;2.714;2022-09-09T06:38:43;11.70;;;4.50;;
54265;SDS011;40836;39.770;2.714;2022-09-09T06:41:08;12.35;;;4.63;;
54265;SDS011;40836;39.770;2.714;2022-09-09T06:43:35;13.25;;;4.45;;
54265;SDS011;40836;39.770;2.714;2022-09-09T06:46:02;10.02;;;4.50;;
54265;SDS011;40836;39.770;2.714;2022-09-09T06:48:29;12.73;;;4.60;;
54265;SDS011;40836;39.770;2.714;2022-09-09T06:51:02;9.15;;;4.32;;
54265;SDS011;40836;39.770;2.714;2022-09-09T06:53:28;10.75;;;4.50;;
54265;SDS011;40836;39.770;2.714;2022-09-09T06:55:54;10.80;;;4.60;;
54265;SDS011;40836;39.770;2.714;2022-09-09T06:58:19;9.75;;;4.25;;
54265;SDS011;40836;39.770;2.714;2022-09-09T07:00:47;11.77;;;4.22;;
54265;SDS011;40836;39.770;2.714;2022-09-09T07:03:12;12.38;;;5.00;;
54265;SDS011;40836;39.770;2.714;2022-09-09T07:05:38;10.68;;;4.90;;
54265;SDS011;40836;39.770;2.714;2022-09-09T07:08:04;12.75;;;4.70;;
54265;SDS011;40836;39.770;2.714;2022-09-09T07:10:29;16.73;;;4.50;;
54265;SDS011;40836;39.770;2.714;2022-09-09T07:12:55;17.60;;;4.80;;
54265;SDS011;40836;39.770;2.714;2022-09-09T07:15:20;15.00;;;5.00;;
54265;SDS011;40836;39.770;2.714;2022-09-09T07:17:48;13.48;;;4.75;;
54265;SDS011;40836;39.770;2.714;2022-09-09T07:20:13;11.30;;;4.40;;
54265;SDS011;40836;39.770;2.714;2022-09-09T07:22:39;10.77;;;4.57;;
54265;SDS011;40836;39.770;2.714;2022-09-09T07:25:05;11.77;;;4.43;;
54265;SDS011;40836;39.770;2.714;2022-09-09T07:27:32;17.38;;;5.20;;
54265;SDS011;40836;39.770;2.714;2022-09-09T07:29:57;17.65;;;4.70;;
54265;SDS011;40836;39.770;2.714;2022-09-09T07:32:23;13.93;;;4.70;;
54265;SDS011;40836;39.770;2.714;2022-09-09T07:34:50;11.10;;;4.40;;
54265;SDS011;40836;39.770;2.714;2022-09-09T07:37:16;9.52;;;4.03;;
54265;SDS011;40836;39.770;2.714;2022-09-09T07:39:42;9.82;;;3.50;;
54265;SDS011;40836;39.770;2.714;2022-09-09T07:42:07;9.15;;;2.85;;
54265;SDS011;40836;39.770;2.714;2022-09-09T07:44:36;8.90;;;3.25;;
54265;SDS011;40836;39.770;2.714;2022-09-09T07:47:04;8.70;;;2.90;;
54265;SDS011;40836;39.770;2.714;2022-09-09T07:49:30;13.93;;;2.95;;
54265;SDS011;40836;39.770;2.714;2022-09-09T07:51:55;7.57;;;2.70;;
54265;SDS011;40836;39.770;2.714;2022-09-09T07:54:20;9.15;;;3.28;;
54265;SDS011;40836;39.770;2.714;2022-09-09T07:56:48;9.82;;;2.63;;
54265;SDS011;40836;39.770;2.714;2022-09-09T07:59:14;5.20;;;2.63;;
54265;SDS011;40836;39.770;2.714;2022-09-09T08:01:50;6.60;;;2.30;;
54265;SDS011;40836;39.770;2.714;2022-09-09T08:04:19;10.32;;;2.35;;
54265;SDS011;40836;39.770;2.714;2022-09-09T08:09:15;7.07;;;2.53;;
54265;SDS011;40836;39.770;2.714;2022-09-09T08:11:41;6.22;;;2.30;;
54265;SDS011;40836;39.770;2.714;2022-09-09T08:14:08;6.22;;;2.42;;
54265;SDS011;40836;39.770;2.714;2022-09-09T08:16:36;6.53;;;2.25;;
54265;SDS011;40836;39.770;2.714;2022-09-09T08:19:03;7.00;;;2.22;;
54265;SDS011;40836;39.770;2.714;2022-09-09T08:21:32;9.48;;;2.55;;
54265;SDS011;40836;39.770;2.714;2022-09-09T08:23:59;6.90;;;2.35;;
54265;SDS011;40836;39.770;2.714;2022-09-09T08:26:26;9.48;;;2.60;;
54265;SDS011;40836;39.770;2.714;2022-09-09T08:28:54;6.57;;;2.33;;
54265;SDS011;40836;39.770;2.714;2022-09-09T08:31:25;5.25;;;2.17;;
54265;SDS011;40836;39.770;2.714;2022-09-09T08:36:23;6.95;;;2.28;;
54265;SDS011;40836;39.770;2.714;2022-09-09T08:38:52;8.32;;;2.25;;
54265;SDS011;40836;39.770;2.714;2022-09-09T08:44:07;6.57;;;2.40;;
54265;SDS011;40836;39.770;2.714;2022-09-09T08:52:44;4.60;;;2.00;;
54265;SDS011;40836;39.770;2.714;2022-09-09T08:55:23;5.93;;;2.25;;
54265;SDS011;40836;39.770;2.714;2022-09-09T08:57:59;6.65;;;2.30;;
54265;SDS011;40836;39.770;2.714;2022-09-09T09:00:35;6.90;;;2.40;;
54265;SDS011;40836;39.770;2.714;2022-09-09T09:03:13;4.53;;;1.95;;
54265;SDS011;40836;39.770;2.714;2022-09-09T09:05:48;5.47;;;2.40;;
54265;SDS011;40836;39.770;2.714;2022-09-09T09:08:26;6.18;;;2.30;;
54265;SDS011;40836;39.770;2.714;2022-09-09T09:10:54;7.35;;;2.28;;
54265;SDS011;40836;39.770;2.714;2022-09-09T09:19:21;4.30;;;2.05;;
54265;SDS011;40836;39.770;2.714;2022-09-09T09:21:56;5.22;;;2.08;;
54265;SDS011;40836;39.770;2.714;2022-09-09T09:27:14;6.00;;;2.33;;
54265;SDS011;40836;39.770;2.714;2022-09-09T09:30:02;6.90;;;2.50;;
54265;SDS011;40836;39.770;2.714;2022-09-09T09:32:39;6.35;;;2.20;;
54265;SDS011;40836;39.770;2.714;2022-09-09T09:35:12;6.10;;;2.33;;
54265;SDS011;40836;39.770;2.714;2022-09-09T09:37:39;5.80;;;2.33;;
54265;SDS011;40836;39.770;2.714;2022-09-09T09:40:08;6.03;;;2.40;;
54265;SDS011;40836;39.770;2.714;2022-09-09T09:42:34;5.25;;;2.33;;
54265;SDS011;40836;39.770;2.714;2022-09-09T09:45:22;4.20;;;1.92;;
54265;SDS011;40836;39.770;2.714;2022-09-09T09:47:57;9.23;;;2.40;;
54265;SDS011;40836;39.770;2.714;2022-09-09T09:50:30;6.75;;;2.17;;
54265;SDS011;40836;39.770;2.714;2022-09-09T09:52:58;7.05;;;2.50;;
54265;SDS011;40836;39.770;2.714;2022-09-09T09:55:26;9.02;;;2.20;;
54265;SDS011;40836;39.770;2.714;2022-09-09T09:58:06;10.10;;;2.30;;
54265;SDS011;40836;39.770;2.714;2022-09-09T10:00:47;6.47;;;2.03;;
54265;SDS011;40836;39.770;2.714;2022-09-09T10:03:25;6.28;;;2.35;;
54265;SDS011;40836;39.770;2.714;2022-09-09T10:05:51;5.40;;;2.15;;
54265;SDS011;40836;39.770;2.714;2022-09-09T10:08:17;7.57;;;2.22;;
54265;SDS011;40836;39.770;2.714;2022-09-09T10:18:54;5.10;;;2.05;;
54265;SDS011;40836;39.770;2.714;2022-09-09T10:29:50;9.40;;;2.40;;
54265;SDS011;40836;39.770;2.714;2022-09-09T10:32:33;6.78;;;2.25;;
54265;SDS011;40836;39.770;2.714;2022-09-09T10:35:11;4.47;;;2.03;;
54265;SDS011;40836;39.770;2.714;2022-09-09T10:37:58;7.22;;;2.20;;
54265;SDS011;40836;39.770;2.714;2022-09-09T10:51:49;5.57;;;2.33;;
54265;SDS011;40836;39.770;2.714;2022-09-09T10:57:00;5.45;;;2.35;;
54265;SDS011;40836;39.770;2.714;2022-09-09T10:59:38;7.05;;;2.30;;
54265;SDS011;40836;39.770;2.714;2022-09-09T11:04:45;4.85;;;2.22;;
54265;SDS011;40836;39.770;2.714;2022-09-09T11:07:37;4.63;;;2.20;;
54265;SDS011;40836;39.770;2.714;2022-09-09T11:12:53;9.13;;;2.55;;
54265;SDS011;40836;39.770;2.714;2022-09-09T11:15:29;6.68;;;2.05;;
54265;SDS011;40836;39.770;2.714;2022-09-09T11:18:01;5.32;;;2.30;;
54265;SDS011;40836;39.770;2.714;2022-09-09T11:20:29;9.40;;;2.60;;
54265;SDS011;40836;39.770;2.714;2022-09-09T11:23:09;5.65;;;2.22;;
54265;SDS011;40836;39.770;2.714;2022-09-09T11:25:48;5.53;;;2.25;;
54265;SDS011;40836;39.770;2.714;2022-09-09T11:28:39;4.25;;;2.10;;
54265;SDS011;40836;39.770;2.714;2022-09-09T11:41:51;8.57;;;2.70;;
54265;SDS011;40836;39.770;2.714;2022-09-09T11:44:24;8.32;;;2.22;;
54265;SDS011;40836;39.770;2.714;2022-09-09T11:46:55;8.88;;;2.50;;
54265;SDS011;40836;39.770;2.714;2022-09-09T11:49:28;7.63;;;2.33;;
54265;SDS011;40836;39.770;2.714;2022-09-09T11:52:24;6.60;;;2.25;;
54265;SDS011;40836;39.770;2.714;2022-09-09T11:54:51;8.57;;;2.50;;
54265;SDS011;40836;39.770;2.714;2022-09-09T11:57:41;8.25;;;2.30;;
54265;SDS011;40836;39.770;2.714;2022-09-09T12:00:06;5.15;;;2.10;;
54265;SDS011;40836;39.770;2.714;2022-09-09T12:02:52;6.70;;;2.50;;
54265;SDS011;40836;39.770;2.714;2022-09-09T12:05:17;7.80;;;2.22;;
54265;SDS011;40836;39.770;2.714;2022-09-09T12:07:52;5.93;;;2.35;;
54265;SDS011;40836;39.770;2.714;2022-09-09T12:10:29;7.57;;;2.70;;
54265;SDS011;40836;39.770;2.714;2022-09-09T12:13:21;8.65;;;2.17;;
54265;SDS011;40836;39.770;2.714;2022-09-09T12:18:33;4.32;;;2.05;;
54265;SDS011;40836;39.770;2.714;2022-09-09T12:21:13;5.55;;;2.03;;
54265;SDS011;40836;39.770;2.714;2022-09-09T12:23:53;7.50;;;2.40;;
54265;SDS011;40836;39.770;2.714;2022-09-09T12:26:30;6.57;;;2.53;;
54265;SDS011;40836;39.770;2.714;2022-09-09T12:29:14;5.68;;;2.10;;
54265;SDS011;40836;39.770;2.714;2022-09-09T12:31:46;7.82;;;2.40;;
54265;SDS011;40836;39.770;2.714;2022-09-09T12:34:18;5.15;;;2.10;;
54265;SDS011;40836;39.770;2.714;2022-09-09T12:37:23;6.22;;;2.30;;
54265;SDS011;40836;39.770;2.714;2022-09-09T12:40:18;7.43;;;2.30;;
54265;SDS011;40836;39.770;2.714;2022-09-09T12:42:44;8.45;;;2.22;;
54265;SDS011;40836;39.770;2.714;2022-09-09T12:45:20;7.45;;;2.35;;
54265;SDS011;40836;39.770;2.714;2022-09-09T12:47:49;8.07;;;2.53;;
54265;SDS011;40836;39.770;2.714;2022-09-09T12:50:26;6.50;;;2.00;;
54265;SDS011;40836;39.770;2.714;2022-09-09T12:52:55;5.93;;;2.20;;
54265;SDS011;40836;39.770;2.714;2022-09-09T12:55:32;6.35;;;2.03;;
54265;SDS011;40836;39.770;2.714;2022-09-09T12:58:01;5.65;;;2.15;;
54265;SDS011;40836;39.770;2.714;2022-09-09T13:00:31;5.30;;;2.13;;
54265;SDS011;40836;39.770;2.714;2022-09-09T13:02:59;5.80;;;1.92;;
54265;SDS011;40836;39.770;2.714;2022-09-09T13:05:27;4.07;;;2.22;;
54265;SDS011;40836;39.770;2.714;2022-09-09T13:08:06;5.75;;;2.30;;
54265;SDS011;40836;39.770;2.714;2022-09-09T13:10:43;5.97;;;2.13;;
54265;SDS011;40836;39.770;2.714;2022-09-09T13:13:15;4.95;;;2.30;;
54265;SDS011;40836;39.770;2.714;2022-09-09T13:15:54;4.80;;;1.98;;
54265;SDS011;40836;39.770;2.714;2022-09-09T13:18:23;7.80;;;2.30;;
54265;SDS011;40836;39.770;2.714;2022-09-09T13:20:53;4.70;;;2.10;;
54265;SDS011;40836;39.770;2.714;2022-09-09T13:23:22;7.72;;;2.25;;
54265;SDS011;40836;39.770;2.714;2022-09-09T13:25:56;7.10;;;2.28;;
54265;SDS011;40836;39.770;2.714;2022-09-09T13:28:24;6.15;;;2.10;;
54265;SDS011;40836;39.770;2.714;2022-09-09T13:31:05;7.85;;;2.22;;
54265;SDS011;40836;39.770;2.714;2022-09-09T13:33:44;4.60;;;2.13;;
54265;SDS011;40836;39.770;2.714;2022-09-09T13:36:10;4.95;;;2.00;;
54265;SDS011;40836;39.770;2.714;2022-09-09T13:38:40;7.07;;;2.20;;
54265;SDS011;40836;39.770;2.714;2022-09-09T13:41:20;5.85;;;2.13;;
54265;SDS011;40836;39.770;2.714;2022-09-09T13:44:14;5.10;;;2.30;;
54265;SDS011;40836;39.770;2.714;2022-09-09T13:46:45;5.97;;;1.90;;
54265;SDS011;40836;39.770;2.714;2022-09-09T13:51:40;5.03;;;2.05;;
54265;SDS011;40836;39.770;2.714;2022-09-09T13:54:12;4.45;;;1.90;;
54265;SDS011;40836;39.770;2.714;2022-09-09T13:56:40;5.45;;;1.88;;
54265;SDS011;40836;39.770;2.714;2022-09-09T13:59:09;5.95;;;2.10;;
54265;SDS011;40836;39.770;2.714;2022-09-09T14:01:38;5.25;;;2.00;;
54265;SDS011;40836;39.770;2.714;2022-09-09T14:04:04;5.68;;;2.13;;
54265;SDS011;40836;39.770;2.714;2022-09-09T14:06:34;5.50;;;2.08;;
54265;SDS011;40836;39.770;2.714;2022-09-09T14:09:03;7.88;;;2.30;;
54265;SDS011;40836;39.770;2.714;2022-09-09T14:11:29;6.57;;;2.10;;
54265;SDS011;40836;39.770;2.714;2022-09-09T14:13:54;5.32;;;2.08;;
54265;SDS011;40836;39.770;2.714;2022-09-09T14:16:21;8.50;;;2.10;;
54265;SDS011;40836;39.770;2.714;2022-09-09T14:18:46;7.60;;;2.28;;
54265;SDS011;40836;39.770;2.714;2022-09-09T14:21:12;5.38;;;2.28;;
54265;SDS011;40836;39.770;2.714;2022-09-09T14:23:38;5.07;;;1.98;;
54265;SDS011;40836;39.770;2.714;2022-09-09T14:26:06;6.60;;;2.13;;
54265;SDS011;40836;39.770;2.714;2022-09-09T14:28:33;6.47;;;2.00;;
54265;SDS011;40836;39.770;2.714;2022-09-09T14:30:59;5.40;;;2.15;;
54265;SDS011;40836;39.770;2.714;2022-09-09T14:33:26;4.90;;;2.10;;
54265;SDS011;40836;39.770;2.714;2022-09-09T14:36:00;5.30;;;1.95;;
54265;SDS011;40836;39.770;2.714;2022-09-09T14:38:31;5.53;;;1.93;;
54265;SDS011;40836;39.770;2.714;2022-09-09T14:40:58;4.32;;;1.90;;
54265;SDS011;40836;39.770;2.714;2022-09-09T14:43:24;5.35;;;1.80;;
54265;SDS011;40836;39.770;2.714;2022-09-09T14:45:51;7.90;;;2.10;;
54265;SDS011;40836;39.770;2.714;2022-09-09T14:48:17;4.60;;;2.08;;
54265;SDS011;40836;39.770;2.714;2022-09-09T14:50:43;4.80;;;1.85;;
54265;SDS011;40836;39.770;2.714;2022-09-09T14:53:09;6.22;;;1.98;;
54265;SDS011;40836;39.770;2.714;2022-09-09T14:55:35;4.50;;;2.17;;
54265;SDS011;40836;39.770;2.714;2022-09-09T14:58:01;6.53;;;2.00;;
54265;SDS011;40836;39.770;2.714;2022-09-09T15:00:26;6.72;;;2.25;;
54265;SDS011;40836;39.770;2.714;2022-09-09T15:02:52;7.00;;;2.10;;
54265;SDS011;40836;39.770;2.714;2022-09-09T15:05:18;5.15;;;1.85;;
54265;SDS011;40836;39.770;2.714;2022-09-09T15:07:44;4.90;;;2.13;;
54265;SDS011;40836;39.770;2.714;2022-09-09T15:10:09;7.88;;;1.88;;
54265;SDS011;40836;39.770;2.714;2022-09-09T15:12:36;4.32;;;2.00;;
54265;SDS011;40836;39.770;2.714;2022-09-09T15:15:01;5.93;;;2.03;;
54265;SDS011;40836;39.770;2.714;2022-09-09T15:17:28;4.40;;;2.03;;
54265;SDS011;40836;39.770;2.714;2022-09-09T15:19:53;4.80;;;2.17;;
54265;SDS011;40836;39.770;2.714;2022-09-09T15:22:19;7.43;;;2.00;;
54265;SDS011;40836;39.770;2.714;2022-09-09T15:24:45;5.22;;;2.08;;
54265;SDS011;40836;39.770;2.714;2022-09-09T15:27:10;4.95;;;1.70;;
54265;SDS011;40836;39.770;2.714;2022-09-09T15:29:36;6.35;;;1.90;;
54265;SDS011;40836;39.770;2.714;2022-09-09T15:32:03;5.22;;;2.00;;
54265;SDS011;40836;39.770;2.714;2022-09-09T15:34:28;7.80;;;2.30;;
54265;SDS011;40836;39.770;2.714;2022-09-09T15:36:54;4.93;;;2.30;;
54265;SDS011;40836;39.770;2.714;2022-09-09T15:39:20;5.88;;;2.33;;
54265;SDS011;40836;39.770;2.714;2022-09-09T15:41:47;9.95;;;2.30;;
54265;SDS011;40836;39.770;2.714;2022-09-09T15:44:13;4.50;;;1.90;;
54265;SDS011;40836;39.770;2.714;2022-09-09T15:46:44;5.43;;;1.90;;
54265;SDS011;40836;39.770;2.714;2022-09-09T15:51:43;6.55;;;2.30;;
54265;SDS011;40836;39.770;2.714;2022-09-09T15:54:14;8.50;;;2.20;;
54265;SDS011;40836;39.770;2.714;2022-09-09T15:56:46;8.63;;;2.00;;
54265;SDS011;40836;39.770;2.714;2022-09-09T15:59:15;5.60;;;2.28;;
54265;SDS011;40836;39.770;2.714;2022-09-09T16:01:41;6.35;;;2.10;;
54265;SDS011;40836;39.770;2.714;2022-09-09T16:04:07;5.13;;;1.98;;
54265;SDS011;40836;39.770;2.714;2022-09-09T16:06:33;8.43;;;2.22;;
54265;SDS011;40836;39.770;2.714;2022-09-09T16:08:59;5.03;;;1.92;;
54265;SDS011;40836;39.770;2.714;2022-09-09T16:11:28;6.55;;;1.90;;
54265;SDS011;40836;39.770;2.714;2022-09-09T16:13:55;5.75;;;2.17;;
54265;SDS011;40836;39.770;2.714;2022-09-09T16:16:24;7.25;;;2.10;;
54265;SDS011;40836;39.770;2.714;2022-09-09T16:18:52;5.30;;;2.33;;
54265;SDS011;40836;39.770;2.714;2022-09-09T16:23:49;9.65;;;2.10;;
54265;SDS011;40836;39.770;2.714;2022-09-09T16:26:21;7.47;;;1.92;;
54265;SDS011;40836;39.770;2.714;2022-09-09T16:28:47;9.82;;;2.22;;
54265;SDS011;40836;39.770;2.714;2022-09-09T16:31:15;5.22;;;2.13;;
54265;SDS011;40836;39.770;2.714;2022-09-09T16:33:43;10.57;;;2.30;;
54265;SDS011;40836;39.770;2.714;2022-09-09T16:36:10;6.25;;;2.00;;
54265;SDS011;40836;39.770;2.714;2022-09-09T16:38:37;6.07;;;2.00;;
54265;SDS011;40836;39.770;2.714;2022-09-09T16:41:04;8.15;;;1.88;;
54265;SDS011;40836;39.770;2.714;2022-09-09T16:43:32;4.35;;;1.95;;
54265;SDS011;40836;39.770;2.714;2022-09-09T16:45:58;3.70;;;2.00;;
54265;SDS011;40836;39.770;2.714;2022-09-09T16:48:30;5.50;;;2.20;;
54265;SDS011;40836;39.770;2.714;2022-09-09T16:51:07;6.70;;;1.92;;
54265;SDS011;40836;39.770;2.714;2022-09-09T16:53:36;6.05;;;2.00;;
54265;SDS011;40836;39.770;2.714;2022-09-09T16:56:09;5.97;;;2.05;;
54265;SDS011;40836;39.770;2.714;2022-09-09T16:58:40;6.40;;;2.05;;
54265;SDS011;40836;39.770;2.714;2022-09-09T17:01:08;4.43;;;1.90;;
54265;SDS011;40836;39.770;2.714;2022-09-09T17:03:35;5.40;;;2.10;;
54265;SDS011;40836;39.770;2.714;2022-09-09T17:06:01;3.60;;;1.90;;
54265;SDS011;40836;39.770;2.714;2022-09-09T17:08:28;5.60;;;2.30;;
54265;SDS011;40836;39.770;2.714;2022-09-09T17:10:54;8.43;;;2.17;;
54265;SDS011;40836;39.770;2.714;2022-09-09T17:13:20;5.28;;;1.90;;
54265;SDS011;40836;39.770;2.714;2022-09-09T17:15:46;8.18;;;2.28;;
54265;SDS011;40836;39.770;2.714;2022-09-09T17:18:12;6.63;;;2.30;;
54265;SDS011;40836;39.770;2.714;2022-09-09T17:20:38;7.75;;;2.33;;